Time;durP1;ratioP1;P1;durP2;ratioP2;P2;SDS_P1;SDS_P2;PMS_P1;PMS_P2;Temp;Humidity;BMP_temperature;BMP_pressure;BME280_temperature;BME280_humidity;BME280_pressure;Samples;Min_cycle;Max_cycle;Signal;HPM_P1;HPM_P2
2021/09/17 00:01:52;;;;;;;10.05;5.32;;;;;;;;;;5001724;28;20076;-86
2021/09/17 00:04:18;;;;;;;10.65;5.43;;;;;;;;;;5039188;28;20061;-86
2021/09/17 00:06:45;;;;;;;8.93;5.88;;;;;;;;;;5021655;28;20041;-87
2021/09/17 00:09:12;;;;;;;12.57;5.35;;;;;;;;;;5003158;28;20109;-86
2021/09/17 00:11:40;;;;;;;9.77;5.90;;;;;;;;;;5037843;28;20034;-87
2021/09/17 00:14:07;;;;;;;8.50;5.32;;;;;;;;;;5006398;28;20046;-86
2021/09/17 00:16:33;;;;;;;9.32;5.80;;;;;;;;;;5006233;28;20046;-86
2021/09/17 00:19:00;;;;;;;10.40;6.60;;;;;;;;;;5033094;28;20045;-86
2021/09/17 00:21:27;;;;;;;7.93;5.13;;;;;;;;;;5026699;28;20042;-86
2021/09/17 00:23:54;;;;;;;9.05;4.88;;;;;;;;;;5026255;28;20049;-86
2021/09/17 00:26:20;;;;;;;6.97;4.82;;;;;;;;;;5026035;28;20470;-87
2021/09/17 00:28:50;;;;;;;7.05;4.70;;;;;;;;;;5024608;28;20059;-86
2021/09/17 00:31:16;;;;;;;6.10;4.20;;;;;;;;;;5025843;28;20049;-86
2021/09/17 00:33:43;;;;;;;7.80;4.50;;;;;;;;;;5043908;28;20041;-86
2021/09/17 00:36:10;;;;;;;6.70;4.68;;;;;;;;;;5042580;28;20038;-86
2021/09/17 00:38:37;;;;;;;7.40;4.68;;;;;;;;;;5040772;28;20056;-87
2021/09/17 00:41:03;;;;;;;7.10;4.57;;;;;;;;;;5040613;28;20041;-87
2021/09/17 00:43:30;;;;;;;8.00;4.65;;;;;;;;;;5038476;28;20046;-86
2021/09/17 00:45:58;;;;;;;6.38;4.22;;;;;;;;;;5023115;28;20056;-87
2021/09/17 00:48:25;;;;;;;6.55;4.05;;;;;;;;;;5035602;28;20051;-86
2021/09/17 00:50:52;;;;;;;7.35;4.25;;;;;;;;;;5020327;28;20113;-87
2021/09/17 00:53:19;;;;;;;6.65;4.00;;;;;;;;;;5019340;28;20042;-87
2021/09/17 00:55:45;;;;;;;9.13;3.95;;;;;;;;;;5021627;28;20389;-87
2021/09/17 00:58:12;;;;;;;6.75;4.13;;;;;;;;;;5021703;28;20048;-87
2021/09/17 01:00:39;;;;;;;5.03;3.35;;;;;;;;;;5040259;28;20049;-87
2021/09/17 01:03:07;;;;;;;5.90;4.15;;;;;;;;;;5022650;28;20041;-86
2021/09/17 01:05:34;;;;;;;5.30;3.80;;;;;;;;;;5041080;28;20041;-86
2021/09/17 01:08:01;;;;;;;5.85;4.03;;;;;;;;;;5040787;28;20144;-86
2021/09/17 01:10:28;;;;;;;7.53;3.80;;;;;;;;;;5024268;28;20497;-86
2021/09/17 01:12:55;;;;;;;6.45;3.95;;;;;;;;;;5024223;28;20037;-86
2021/09/17 01:15:22;;;;;;;5.75;3.67;;;;;;;;;;5057346;28;20406;-87
2021/09/17 01:17:49;;;;;;;5.53;3.50;;;;;;;;;;5041981;28;20037;-86
2021/09/17 01:20:19;;;;;;;6.43;3.42;;;;;;;;;;5024554;28;20045;-87
2021/09/17 01:22:48;;;;;;;6.22;4.10;;;;;;;;;;5022182;28;20045;-86
2021/09/17 01:25:17;;;;;;;5.80;3.75;;;;;;;;;;5023780;28;20095;-87
2021/09/17 01:27:44;;;;;;;6.35;3.88;;;;;;;;;;5024163;28;20042;-86
2021/09/17 01:30:12;;;;;;;5.78;3.65;;;;;;;;;;5022586;28;20049;-87
2021/09/17 01:32:41;;;;;;;6.88;3.72;;;;;;;;;;5021726;28;20062;-86
2021/09/17 01:35:09;;;;;;;6.25;3.97;;;;;;;;;;5021333;28;20046;-86
2021/09/17 01:37:36;;;;;;;6.38;3.60;;;;;;;;;;5022377;28;20057;-86
2021/09/17 01:40:06;;;;;;;8.02;3.30;;;;;;;;;;5007256;28;20096;-86
2021/09/17 01:42:32;;;;;;;6.78;3.53;;;;;;;;;;5021692;28;20052;-86
2021/09/17 01:44:59;;;;;;;6.75;3.58;;;;;;;;;;5021477;28;20053;-87
2021/09/17 01:47:26;;;;;;;5.63;3.60;;;;;;;;;;5009323;28;20049;-86
2021/09/17 01:49:53;;;;;;;5.75;3.35;;;;;;;;;;5004286;28;20049;-86
2021/09/17 01:52:19;;;;;;;6.50;3.58;;;;;;;;;;5005921;28;20433;-86
2021/09/17 01:54:46;;;;;;;6.43;3.78;;;;;;;;;;5023569;28;20042;-86
2021/09/17 01:57:15;;;;;;;7.38;3.35;;;;;;;;;;5004828;28;20046;-86
2021/09/17 01:59:42;;;;;;;5.45;3.30;;;;;;;;;;5007381;28;20049;-85
2021/09/17 02:02:08;;;;;;;5.13;3.40;;;;;;;;;;5023058;28;20061;-86
2021/09/17 02:04:35;;;;;;;6.07;2.92;;;;;;;;;;5041056;28;20039;-86
2021/09/17 02:07:02;;;;;;;6.10;3.17;;;;;;;;;;5024013;28;20115;-86
2021/09/17 02:09:28;;;;;;;7.53;4.20;;;;;;;;;;5027183;28;20467;-86
2021/09/17 02:11:55;;;;;;;4.78;2.53;;;;;;;;;;5021464;28;20042;-86
2021/09/17 02:14:23;;;;;;;5.88;3.55;;;;;;;;;;5022050;28;20092;-86
2021/09/17 02:16:50;;;;;;;5.20;2.85;;;;;;;;;;5028320;28;20481;-87
2021/09/17 02:19:17;;;;;;;8.32;3.53;;;;;;;;;;5020246;28;20060;-87
2021/09/17 02:21:48;;;;;;;4.93;2.90;;;;;;;;;;5021318;28;20046;-86
2021/09/17 02:24:15;;;;;;;5.70;3.05;;;;;;;;;;5039806;28;20045;-87
2021/09/17 02:26:42;;;;;;;5.75;3.30;;;;;;;;;;5022558;28;20045;-86
2021/09/17 02:29:09;;;;;;;6.75;3.35;;;;;;;;;;5021036;28;20053;-86
2021/09/17 02:31:37;;;;;;;5.20;3.25;;;;;;;;;;5038731;28;20095;-86
2021/09/17 02:34:04;;;;;;;7.40;3.38;;;;;;;;;;5022606;28;20501;-86
2021/09/17 02:36:30;;;;;;;6.43;3.72;;;;;;;;;;5038359;28;20045;-86
2021/09/17 02:38:57;;;;;;;5.28;3.10;;;;;;;;;;5014347;28;20050;-87
2021/09/17 02:41:24;;;;;;;5.22;3.00;;;;;;;;;;5000851;28;20504;-86
2021/09/17 02:43:50;;;;;;;7.72;3.35;;;;;;;;;;5019192;28;20470;-87
2021/09/17 02:46:17;;;;;;;6.25;2.80;;;;;;;;;;4969370;28;20107;-87
2021/09/17 02:48:46;;;;;;;5.20;2.35;;;;;;;;;;5009327;28;20057;-86
2021/09/17 02:51:12;;;;;;;4.43;2.70;;;;;;;;;;5021675;28;20045;-87
2021/09/17 02:53:39;;;;;;;5.13;2.80;;;;;;;;;;5021265;28;20041;-87
2021/09/17 02:56:06;;;;;;;5.35;3.13;;;;;;;;;;5039059;28;20041;-86
2021/09/17 02:58:33;;;;;;;5.88;2.90;;;;;;;;;;5016672;28;20049;-87
2021/09/17 03:00:59;;;;;;;4.32;2.78;;;;;;;;;;5019175;28;20069;-86
2021/09/17 03:03:29;;;;;;;6.93;3.10;;;;;;;;;;5003624;28;20045;-86
2021/09/17 03:05:57;;;;;;;7.07;3.17;;;;;;;;;;5019138;28;20042;-86
2021/09/17 03:08:23;;;;;;;5.75;3.05;;;;;;;;;;5013671;28;20128;-87
2021/09/17 03:10:52;;;;;;;4.55;2.70;;;;;;;;;;5021104;28;20045;-86
2021/09/17 03:13:20;;;;;;;6.50;2.75;;;;;;;;;;5007125;28;20066;-86
2021/09/17 03:15:46;;;;;;;4.53;2.72;;;;;;;;;;5038879;28;20053;-86
2021/09/17 03:18:13;;;;;;;4.35;2.28;;;;;;;;;;5036435;28;20045;-86
2021/09/17 03:20:41;;;;;;;4.28;2.40;;;;;;;;;;5021397;28;20395;-86
2021/09/17 03:23:10;;;;;;;5.63;2.70;;;;;;;;;;5019752;28;20096;-87
2021/09/17 03:25:36;;;;;;;7.13;2.92;;;;;;;;;;5019067;28;20041;-86
2021/09/17 03:28:03;;;;;;;4.93;2.78;;;;;;;;;;5022599;28;20057;-86
2021/09/17 03:30:30;;;;;;;4.43;2.90;;;;;;;;;;5003622;28;20046;-86
2021/09/17 03:32:56;;;;;;;4.82;2.47;;;;;;;;;;5019875;28;20046;-86
2021/09/17 03:35:23;;;;;;;8.98;3.22;;;;;;;;;;5001827;28;20482;-87
2021/09/17 03:37:50;;;;;;;6.93;3.20;;;;;;;;;;5020610;28;20046;-87
2021/09/17 03:40:18;;;;;;;4.68;3.17;;;;;;;;;;5021714;28;20046;-87
2021/09/17 03:42:45;;;;;;;6.18;3.15;;;;;;;;;;5019356;28;20057;-86
2021/09/17 03:45:12;;;;;;;5.97;3.38;;;;;;;;;;5018139;28;20266;-86
2021/09/17 03:47:40;;;;;;;7.95;4.65;;;;;;;;;;5052518;28;20445;-87
2021/09/17 03:50:08;;;;;;;6.18;3.58;;;;;;;;;;5041833;28;20042;-86
2021/09/17 03:52:34;;;;;;;5.82;3.40;;;;;;;;;;5006773;28;20065;-87
2021/09/17 03:55:01;;;;;;;5.63;3.20;;;;;;;;;;5011889;28;20091;-87
2021/09/17 03:57:29;;;;;;;7.88;4.68;;;;;;;;;;5026667;28;20050;-86
2021/09/17 03:59:56;;;;;;;8.70;5.00;;;;;;;;;;5009583;28;20112;-87
2021/09/17 04:02:23;;;;;;;9.50;4.55;;;;;;;;;;5005944;28;20053;-86
2021/09/17 04:04:50;;;;;;;8.52;4.30;;;;;;;;;;5010065;28;20049;-86
2021/09/17 04:07:16;;;;;;;7.90;4.40;;;;;;;;;;5021634;28;20049;-86
2021/09/17 04:09:43;;;;;;;10.00;5.78;;;;;;;;;;5015494;28;20037;-87
2021/09/17 04:12:10;;;;;;;7.78;4.13;;;;;;;;;;5001833;28;20041;-87
2021/09/17 04:14:38;;;;;;;7.00;4.15;;;;;;;;;;5001227;28;20076;-86
2021/09/17 04:17:05;;;;;;;7.65;4.28;;;;;;;;;;5009811;28;20107;-87
2021/09/17 04:19:36;;;;;;;8.23;5.00;;;;;;;;;;5007278;28;20056;-86
2021/09/17 04:22:03;;;;;;;7.20;4.28;;;;;;;;;;5035954;28;20057;-86
2021/09/17 04:24:30;;;;;;;9.10;4.55;;;;;;;;;;5004054;28;20764;-87
2021/09/17 04:26:57;;;;;;;7.18;3.92;;;;;;;;;;5021900;28;20044;-86
2021/09/17 04:29:23;;;;;;;8.65;4.53;;;;;;;;;;5003545;28;20041;-86
2021/09/17 04:31:52;;;;;;;7.45;4.25;;;;;;;;;;5039076;28;20052;-87
2021/09/17 04:34:20;;;;;;;6.88;3.65;;;;;;;;;;5039284;28;20049;-87
2021/09/17 04:36:47;;;;;;;6.28;3.65;;;;;;;;;;5026289;28;20637;-85
2021/09/17 04:39:14;;;;;;;6.18;3.55;;;;;;;;;;5032364;28;20052;-85
2021/09/17 04:41:41;;;;;;;6.03;3.42;;;;;;;;;;5022835;28;20472;-86
2021/09/17 04:44:07;;;;;;;7.15;3.78;;;;;;;;;;5023480;28;20056;-86
2021/09/17 04:46:34;;;;;;;7.65;4.03;;;;;;;;;;5024351;28;20061;-85
2021/09/17 04:49:02;;;;;;;7.15;4.47;;;;;;;;;;5029933;28;20041;-85
2021/09/17 04:51:30;;;;;;;9.98;4.97;;;;;;;;;;5022411;28;20370;-86
2021/09/17 04:53:57;;;;;;;7.53;4.72;;;;;;;;;;5038971;28;20060;-85
2021/09/17 04:56:23;;;;;;;10.38;4.72;;;;;;;;;;5022804;28;20049;-86
2021/09/17 04:58:51;;;;;;;20.00;4.90;;;;;;;;;;5018825;28;20501;-86
2021/09/17 05:01:18;;;;;;;15.75;5.57;;;;;;;;;;5015185;28;20445;-86
2021/09/17 05:03:45;;;;;;;14.15;6.13;;;;;;;;;;5009635;28;20509;-87
2021/09/17 05:06:13;;;;;;;10.00;4.60;;;;;;;;;;5004995;28;20099;-87
2021/09/17 05:08:40;;;;;;;10.35;5.07;;;;;;;;;;5001455;28;20041;-86
2021/09/17 05:11:07;;;;;;;8.35;4.95;;;;;;;;;;5021088;28;20046;-86
2021/09/17 05:13:34;;;;;;;7.88;4.88;;;;;;;;;;5020361;28;20042;-87
2021/09/17 05:16:01;;;;;;;11.52;5.30;;;;;;;;;;5018148;28;20394;-87
2021/09/17 05:18:27;;;;;;;10.55;6.13;;;;;;;;;;5008206;28;20068;-88
2021/09/17 05:20:54;;;;;;;7.78;4.95;;;;;;;;;;5016442;28;20099;-86
2021/09/17 05:23:23;;;;;;;9.43;5.75;;;;;;;;;;5039324;28;20049;-86
2021/09/17 05:25:49;;;;;;;9.75;5.32;;;;;;;;;;5037908;28;20041;-86
2021/09/17 05:28:16;;;;;;;8.65;4.95;;;;;;;;;;5001345;28;20041;-86
2021/09/17 05:30:43;;;;;;;10.95;5.45;;;;;;;;;;5018422;28;20483;-86
2021/09/17 05:33:10;;;;;;;7.43;3.92;;;;;;;;;;4982918;28;20092;-86
2021/09/17 05:35:36;;;;;;;9.15;5.32;;;;;;;;;;5026746;28;20382;-86
2021/09/17 05:38:03;;;;;;;7.28;4.38;;;;;;;;;;5039612;28;20058;-85
2021/09/17 05:40:31;;;;;;;11.90;5.57;;;;;;;;;;5023311;28;20045;-86
2021/09/17 05:42:58;;;;;;;8.18;4.97;;;;;;;;;;5041008;28;20413;-86
2021/09/17 05:45:25;;;;;;;8.60;4.82;;;;;;;;;;5022232;28;20072;-86
2021/09/17 05:47:51;;;;;;;8.05;4.25;;;;;;;;;;5023421;28;20049;-86
2021/09/17 05:50:18;;;;;;;8.30;4.03;;;;;;;;;;5023596;28;20049;-85
2021/09/17 05:52:45;;;;;;;8.10;5.18;;;;;;;;;;5041436;28;20045;-86
2021/09/17 05:55:12;;;;;;;8.52;4.97;;;;;;;;;;5025015;28;20052;-86
2021/09/17 05:57:40;;;;;;;8.57;5.40;;;;;;;;;;5041418;28;20109;-87
2021/09/17 06:00:08;;;;;;;8.52;5.22;;;;;;;;;;5005311;28;20049;-86
2021/09/17 06:02:35;;;;;;;10.05;5.35;;;;;;;;;;5004360;28;20056;-86
2021/09/17 06:05:02;;;;;;;8.57;4.90;;;;;;;;;;5004332;28;20669;-86
2021/09/17 06:07:28;;;;;;;8.20;4.95;;;;;;;;;;5010485;28;20045;-86
2021/09/17 06:09:55;;;;;;;8.13;4.93;;;;;;;;;;5012476;28;20046;-86
2021/09/17 06:12:22;;;;;;;9.73;5.65;;;;;;;;;;5009684;28;20034;-86
2021/09/17 06:14:50;;;;;;;10.52;5.88;;;;;;;;;;5019218;28;20052;-86
2021/09/17 06:17:16;;;;;;;8.85;5.35;;;;;;;;;;5019777;28;20048;-85
2021/09/17 06:19:43;;;;;;;9.93;5.18;;;;;;;;;;4989283;28;20500;-86
2021/09/17 06:22:10;;;;;;;11.43;6.50;;;;;;;;;;5021010;28;20042;-86
2021/09/17 06:24:37;;;;;;;11.10;5.40;;;;;;;;;;5021309;28;20037;-86
2021/09/17 06:27:04;;;;;;;15.95;5.95;;;;;;;;;;4987832;28;20136;-86
2021/09/17 06:29:31;;;;;;;8.88;5.38;;;;;;;;;;5001815;28;20648;-85
2021/09/17 06:31:59;;;;;;;16.00;6.25;;;;;;;;;;5022784;28;20486;-86
2021/09/17 06:34:26;;;;;;;11.70;5.97;;;;;;;;;;5006578;28;20049;-87
2021/09/17 06:36:53;;;;;;;13.30;5.82;;;;;;;;;;5040487;28;20068;-86
2021/09/17 06:39:22;;;;;;;8.20;5.65;;;;;;;;;;5038076;28;20460;-85
2021/09/17 06:41:49;;;;;;;8.75;5.03;;;;;;;;;;5023686;28;20052;-86
2021/09/17 06:44:15;;;;;;;11.80;6.30;;;;;;;;;;5022734;28;20053;-85
2021/09/17 06:46:42;;;;;;;18.92;6.28;;;;;;;;;;5041426;28;20056;-85
2021/09/17 06:49:10;;;;;;;11.35;6.85;;;;;;;;;;5015166;28;20061;-86
2021/09/17 06:51:37;;;;;;;13.10;6.10;;;;;;;;;;5016775;28;20045;-85
2021/09/17 06:54:03;;;;;;;11.15;6.47;;;;;;;;;;5038944;28;20052;-86
2021/09/17 06:56:30;;;;;;;11.88;6.75;;;;;;;;;;5038357;28;20052;-85
2021/09/17 06:58:57;;;;;;;10.00;6.43;;;;;;;;;;5027483;28;20042;-86
2021/09/17 07:01:25;;;;;;;11.90;7.03;;;;;;;;;;5025966;28;20064;-86
2021/09/17 07:03:52;;;;;;;11.30;7.40;;;;;;;;;;5020178;28;20541;-87
2021/09/17 07:06:20;;;;;;;10.80;6.63;;;;;;;;;;5019256;28;20045;-85
2021/09/17 07:08:47;;;;;;;12.75;7.20;;;;;;;;;;4994631;28;20041;-85
2021/09/17 07:11:13;;;;;;;10.73;6.57;;;;;;;;;;5015993;28;20041;-85
2021/09/17 07:13:40;;;;;;;9.95;6.25;;;;;;;;;;5037402;28;20056;-86
2021/09/17 07:16:07;;;;;;;11.38;6.63;;;;;;;;;;5020005;28;20042;-85
2021/09/17 07:18:33;;;;;;;10.48;7.20;;;;;;;;;;5016860;28;20293;-85
2021/09/17 07:21:01;;;;;;;10.95;6.72;;;;;;;;;;5041183;28;20046;-84
2021/09/17 07:23:30;;;;;;;10.43;7.20;;;;;;;;;;5026708;28;20406;-86
2021/09/17 07:25:57;;;;;;;11.20;7.20;;;;;;;;;;5043394;28;20048;-86
2021/09/17 07:28:23;;;;;;;11.23;6.72;;;;;;;;;;5004453;28;20470;-86
2021/09/17 07:30:50;;;;;;;11.07;7.18;;;;;;;;;;5008125;28;20044;-87
2021/09/17 07:33:17;;;;;;;13.00;7.82;;;;;;;;;;5026721;28;20057;-85
2021/09/17 07:35:44;;;;;;;14.18;7.30;;;;;;;;;;5013495;28;20087;-86
2021/09/17 07:38:10;;;;;;;12.05;7.72;;;;;;;;;;5014915;28;20050;-85
2021/09/17 07:40:38;;;;;;;11.60;6.93;;;;;;;;;;5042957;28;20074;-86
2021/09/17 07:43:05;;;;;;;12.40;7.28;;;;;;;;;;5041145;28;20049;-86
2021/09/17 07:45:32;;;;;;;11.88;6.88;;;;;;;;;;5022272;28;20433;-86
2021/09/17 07:48:00;;;;;;;11.07;7.38;;;;;;;;;;5021305;28;20099;-86
2021/09/17 07:50:26;;;;;;;12.98;7.57;;;;;;;;;;5018130;28;20043;-86
2021/09/17 07:52:53;;;;;;;15.27;7.40;;;;;;;;;;5041718;28;20048;-87
2021/09/17 07:55:20;;;;;;;12.15;7.75;;;;;;;;;;5013507;28;20057;-86
2021/09/17 07:57:48;;;;;;;17.00;8.18;;;;;;;;;;5041053;28;20056;-86
2021/09/17 08:00:17;;;;;;;11.02;7.43;;;;;;;;;;5038157;28;20049;-86
2021/09/17 08:02:45;;;;;;;11.07;6.65;;;;;;;;;;5042489;28;20052;-85
2021/09/17 08:05:13;;;;;;;10.25;7.00;;;;;;;;;;5039354;28;20037;-85
2021/09/17 08:07:40;;;;;;;10.48;7.15;;;;;;;;;;5042727;28;20045;-85
2021/09/17 08:10:07;;;;;;;13.13;8.00;;;;;;;;;;5036295;28;20049;-86
2021/09/17 08:12:34;;;;;;;11.18;7.75;;;;;;;;;;5038665;28;20068;-86
2021/09/17 08:15:02;;;;;;;11.23;6.65;;;;;;;;;;5010779;28;20077;-84
2021/09/17 08:17:29;;;;;;;10.05;7.15;;;;;;;;;;5017862;28;20049;-84
2021/09/17 08:19:56;;;;;;;10.88;7.20;;;;;;;;;;5006920;28;20382;-86
2021/09/17 08:22:23;;;;;;;9.95;6.60;;;;;;;;;;5004288;28;20053;-86
2021/09/17 08:27:45;;;;;;;;;;;;;;;;;;;;;
2021/09/17 08:37:09;;;;;;;9.90;7.05;;;;;;;;;;4989572;28;20050;-85
2021/09/17 08:39:44;;;;;;;12.27;8.27;;;;;;;;;;4988756;28;20053;-85
2021/09/17 08:42:25;;;;;;;12.25;8.70;;;;;;;;;;4989702;28;20062;-86
2021/09/17 08:44:56;;;;;;;13.43;7.78;;;;;;;;;;4987739;28;20051;-85
2021/09/17 08:47:31;;;;;;;15.15;8.27;;;;;;;;;;5032211;28;20139;-85
2021/09/17 08:50:00;;;;;;;14.20;8.07;;;;;;;;;;5016197;28;20128;-86
2021/09/17 08:52:37;;;;;;;12.30;9.18;;;;;;;;;;5028491;28;20317;-85
2021/09/17 08:55:11;;;;;;;12.55;8.52;;;;;;;;;;5012223;28;20042;-85
2021/09/17 08:57:38;;;;;;;10.60;7.82;;;;;;;;;;5011742;28;20046;-85
2021/09/17 09:00:08;;;;;;;10.43;7.47;;;;;;;;;;4997752;28;20545;-84
2021/09/17 09:02:36;;;;;;;11.10;8.27;;;;;;;;;;4995530;28;20053;-85
2021/09/17 09:05:06;;;;;;;12.85;8.48;;;;;;;;;;5029287;28;20061;-85
2021/09/17 09:07:36;;;;;;;12.55;8.93;;;;;;;;;;5032244;28;20483;-85
2021/09/17 09:10:08;;;;;;;11.75;8.80;;;;;;;;;;5037780;28;20088;-86
2021/09/17 09:12:34;;;;;;;11.38;8.88;;;;;;;;;;5040795;28;20037;-85
2021/09/17 09:15:13;;;;;;;11.27;9.30;;;;;;;;;;5040705;28;20045;-85
2021/09/17 09:17:40;;;;;;;11.80;9.45;;;;;;;;;;5022738;28;20045;-85
2021/09/17 09:20:22;;;;;;;11.63;9.05;;;;;;;;;;5020633;28;20045;-86
2021/09/17 09:23:07;;;;;;;12.60;9.07;;;;;;;;;;5022087;28;20049;-85
2021/09/17 09:25:34;;;;;;;11.95;9.60;;;;;;;;;;5017236;28;20037;-86
2021/09/17 09:28:13;;;;;;;13.10;10.00;;;;;;;;;;5024371;28;20316;-85
2021/09/17 09:30:40;;;;;;;13.57;9.45;;;;;;;;;;5039257;28;20045;-85
2021/09/17 09:33:28;;;;;;;14.40;10.05;;;;;;;;;;5039462;28;20037;-86
2021/09/17 09:35:57;;;;;;;13.20;9.98;;;;;;;;;;5038516;28;20068;-85
2021/09/17 09:38:36;;;;;;;11.70;9.27;;;;;;;;;;5030067;28;20049;-86
2021/09/17 09:41:04;;;;;;;14.63;9.80;;;;;;;;;;5013880;28;20213;-85
2021/09/17 09:43:32;;;;;;;13.27;11.15;;;;;;;;;;5012823;28;20364;-86
2021/09/17 09:46:27;;;;;;;12.77;9.55;;;;;;;;;;5013777;28;20038;-86
2021/09/17 09:49:11;;;;;;;12.30;9.38;;;;;;;;;;5020509;28;20474;-86
2021/09/17 09:51:39;;;;;;;12.07;9.48;;;;;;;;;;5033160;28;20041;-86
2021/09/17 09:54:08;;;;;;;12.73;10.02;;;;;;;;;;5032732;28;20041;-86
2021/09/17 09:56:36;;;;;;;11.55;9.20;;;;;;;;;;5032633;28;20048;-86
2021/09/17 09:59:04;;;;;;;12.65;10.63;;;;;;;;;;5016996;28;20116;-85
2021/09/17 10:01:33;;;;;;;12.27;9.63;;;;;;;;;;5013991;28;20038;-85
2021/09/17 10:04:01;;;;;;;12.30;10.63;;;;;;;;;;5013712;28;20057;-87
2021/09/17 10:06:28;;;;;;;16.60;10.57;;;;;;;;;;5013299;28;20042;-86
2021/09/17 10:08:54;;;;;;;14.43;10.00;;;;;;;;;;5020271;28;20045;-86
2021/09/17 10:11:23;;;;;;;11.48;9.43;;;;;;;;;;5030011;28;20042;-85
2021/09/17 10:13:51;;;;;;;10.18;8.38;;;;;;;;;;5028306;28;20076;-86
2021/09/17 10:16:18;;;;;;;11.23;9.68;;;;;;;;;;5025940;28;20053;-89
2021/09/17 10:18:45;;;;;;;10.52;8.75;;;;;;;;;;5026077;28;20045;-85
2021/09/17 10:21:13;;;;;;;12.02;9.48;;;;;;;;;;5013385;28;20077;-86
2021/09/17 10:23:44;;;;;;;13.70;9.57;;;;;;;;;;5012870;28;20060;-86
2021/09/17 10:26:13;;;;;;;13.85;10.07;;;;;;;;;;5013034;28;20536;-85
2021/09/17 10:59:55;;;;;;;7.68;6.07;;;;;;;;;;5006493;28;20046;-75
2021/09/17 11:02:40;;;;;;;7.45;5.38;;;;;;;;;;5018175;28;20048;-75
2021/09/17 11:08:44;;;;;;;7.90;5.80;;;;;;;;;;5025444;28;20116;-75
2021/09/17 11:11:21;;;;;;;9.68;5.68;;;;;;;;;;5026049;28;20530;-75
2021/09/17 11:13:47;;;;;;;6.72;5.55;;;;;;;;;;5022541;28;20525;-75
2021/09/17 11:16:16;;;;;;;7.50;5.10;;;;;;;;;;5025442;28;20041;-75
2021/09/17 11:18:54;;;;;;;7.43;5.32;;;;;;;;;;5025426;28;20153;-74
2021/09/17 11:21:21;;;;;;;6.50;4.72;;;;;;;;;;5025742;28;20060;-75
2021/09/17 11:23:51;;;;;;;6.18;4.80;;;;;;;;;;5025438;28;20052;-74
2021/09/17 11:26:19;;;;;;;7.00;4.40;;;;;;;;;;5025831;28;20057;-75
2021/09/17 11:28:57;;;;;;;5.80;4.55;;;;;;;;;;5025478;28;20049;-75
2021/09/17 11:31:28;;;;;;;4.40;3.47;;;;;;;;;;5025533;28;20053;-75
2021/09/17 11:33:56;;;;;;;5.68;3.40;;;;;;;;;;5025100;28;20057;-75
2021/09/17 11:36:34;;;;;;;4.72;3.28;;;;;;;;;;5025158;28;20057;-75
2021/09/17 11:39:11;;;;;;;6.25;3.75;;;;;;;;;;5023186;28;20391;-75
2021/09/17 11:41:38;;;;;;;5.75;2.63;;;;;;;;;;5023956;28;20049;-75
2021/09/17 11:44:04;;;;;;;4.07;3.08;;;;;;;;;;5025013;28;20989;-76
2021/09/17 11:46:32;;;;;;;5.13;3.50;;;;;;;;;;5024701;28;20053;-75
2021/09/17 11:48:59;;;;;;;4.68;3.83;;;;;;;;;;5024484;28;20057;-75
2021/09/17 11:51:26;;;;;;;6.65;3.45;;;;;;;;;;5024226;28;20065;-76
2021/09/17 11:53:52;;;;;;;5.03;3.25;;;;;;;;;;5024362;28;20060;-75
2021/09/17 11:56:19;;;;;;;4.03;2.53;;;;;;;;;;5024725;28;20294;-75
2021/09/17 11:58:47;;;;;;;2.90;2.13;;;;;;;;;;5028153;28;20052;-75
2021/09/17 12:01:18;;;;;;;2.78;1.92;;;;;;;;;;5031350;28;20054;-75
2021/09/17 12:03:46;;;;;;;3.10;2.10;;;;;;;;;;5031409;28;20488;-75
2021/09/17 12:06:13;;;;;;;2.33;1.63;;;;;;;;;;5031399;28;20045;-76
2021/09/17 12:08:39;;;;;;;2.63;1.80;;;;;;;;;;5034360;28;20049;-77
2021/09/17 12:11:06;;;;;;;3.35;2.40;;;;;;;;;;5035284;28;20052;-77
2021/09/17 12:13:32;;;;;;;4.55;3.00;;;;;;;;;;5034467;28;20490;-78
2021/09/17 12:15:59;;;;;;;3.58;2.42;;;;;;;;;;5033141;28;20495;-77
2021/09/17 12:18:26;;;;;;;3.42;2.53;;;;;;;;;;5034366;28;20128;-76
2021/09/17 12:20:56;;;;;;;2.95;1.90;;;;;;;;;;5034852;28;20087;-77
2021/09/17 12:23:34;;;;;;;2.80;2.03;;;;;;;;;;5034400;28;20050;-77
2021/09/17 12:26:08;;;;;;;3.03;2.38;;;;;;;;;;5034896;28;20049;-76
2021/09/17 12:28:34;;;;;;;4.13;2.15;;;;;;;;;;5034696;28;20041;-76
2021/09/17 12:31:01;;;;;;;4.18;2.40;;;;;;;;;;5035099;28;20061;-76
2021/09/17 12:33:32;;;;;;;4.63;2.63;;;;;;;;;;5034703;28;20049;-76
2021/09/17 12:36:09;;;;;;;5.90;2.45;;;;;;;;;;5034873;28;20049;-76
2021/09/17 12:38:37;;;;;;;3.60;2.13;;;;;;;;;;5034184;28;20052;-75
2021/09/17 12:41:05;;;;;;;2.97;1.83;;;;;;;;;;5034674;28;20136;-76
2021/09/17 12:43:33;;;;;;;2.78;1.80;;;;;;;;;;5034242;28;20374;-76
2021/09/17 12:46:01;;;;;;;3.33;2.10;;;;;;;;;;5034306;28;20055;-76
2021/09/17 12:48:29;;;;;;;2.47;1.73;;;;;;;;;;5034204;28;20045;-76
2021/09/17 12:50:56;;;;;;;2.40;1.60;;;;;;;;;;5034628;28;20368;-76
2021/09/17 12:53:24;;;;;;;2.28;1.77;;;;;;;;;;5034526;28;20049;-75
2021/09/17 12:56:01;;;;;;;1.90;1.50;;;;;;;;;;5034590;28;20053;-76
2021/09/17 12:58:30;;;;;;;3.35;1.92;;;;;;;;;;5033761;28;20049;-75
2021/09/17 13:00:57;;;;;;;3.60;2.05;;;;;;;;;;5034508;28;20483;-75
2021/09/17 13:03:24;;;;;;;2.85;2.00;;;;;;;;;;5034590;28;20395;-75
2021/09/17 13:05:53;;;;;;;3.33;1.85;;;;;;;;;;5034431;28;20053;-75
2021/09/17 13:08:19;;;;;;;2.88;1.90;;;;;;;;;;5033694;28;20045;-76
2021/09/17 13:10:48;;;;;;;3.10;2.00;;;;;;;;;;5033957;28;20068;-76
2021/09/17 13:13:15;;;;;;;3.80;2.20;;;;;;;;;;5033852;28;20490;-76
2021/09/17 13:15:42;;;;;;;2.20;1.70;;;;;;;;;;5032197;28;20509;-76
2021/09/17 13:18:08;;;;;;;4.35;1.70;;;;;;;;;;5032509;28;20045;-75
2021/09/17 13:20:35;;;;;;;3.67;1.83;;;;;;;;;;5033869;28;20391;-76
2021/09/17 13:23:03;;;;;;;2.63;1.95;;;;;;;;;;5033605;28;20475;-76
2021/09/17 13:25:30;;;;;;;2.83;2.03;;;;;;;;;;5032760;28;20060;-75
2021/09/17 13:27:59;;;;;;;2.85;1.88;;;;;;;;;;5032328;28;20076;-76
2021/09/17 13:30:27;;;;;;;2.72;1.75;;;;;;;;;;5032767;28;20480;-75
2021/09/17 13:32:54;;;;;;;4.90;2.10;;;;;;;;;;5032681;28;20045;-76
2021/09/17 13:35:23;;;;;;;5.18;2.08;;;;;;;;;;5032541;28;20053;-76
2021/09/17 13:37:50;;;;;;;3.13;2.17;;;;;;;;;;5032354;28;20045;-76
2021/09/17 13:40:17;;;;;;;4.20;2.00;;;;;;;;;;5032204;28;20044;-75
2021/09/17 13:42:46;;;;;;;3.20;1.92;;;;;;;;;;5032951;28;20057;-76
2021/09/17 13:45:17;;;;;;;4.40;2.05;;;;;;;;;;5032777;28;20045;-76
2021/09/17 13:47:44;;;;;;;4.15;2.08;;;;;;;;;;5031971;28;20052;-75
2021/09/17 13:50:15;;;;;;;3.63;2.30;;;;;;;;;;5031631;28;20052;-76
2021/09/17 13:52:42;;;;;;;3.08;1.73;;;;;;;;;;5032447;28;20129;-76
2021/09/17 13:55:10;;;;;;;2.88;1.60;;;;;;;;;;5032325;28;20051;-76
2021/09/17 13:57:36;;;;;;;2.75;1.60;;;;;;;;;;5032012;28;20049;-76
2021/09/17 14:00:04;;;;;;;3.03;1.88;;;;;;;;;;5032046;28;20057;-76
2021/09/17 14:02:32;;;;;;;2.85;1.63;;;;;;;;;;5032291;28;20053;-76
2021/09/17 14:05:00;;;;;;;4.20;1.75;;;;;;;;;;5032568;28;20398;-76
2021/09/17 14:07:26;;;;;;;4.35;1.67;;;;;;;;;;5031591;28;20057;-76
2021/09/17 14:09:53;;;;;;;2.15;1.45;;;;;;;;;;5031979;28;20049;-76
2021/09/17 14:12:19;;;;;;;2.88;1.20;;;;;;;;;;5032423;28;20459;-77
2021/09/17 14:14:46;;;;;;;3.67;1.75;;;;;;;;;;5031878;28;20045;-76
2021/09/17 14:17:13;;;;;;;2.60;1.60;;;;;;;;;;5030700;28;20057;-77
2021/09/17 14:19:40;;;;;;;2.13;1.20;;;;;;;;;;5031876;28;20052;-77
2021/09/17 14:22:07;;;;;;;2.25;1.40;;;;;;;;;;5032337;28;20046;-77
2021/09/17 14:24:34;;;;;;;2.53;1.20;;;;;;;;;;5032213;28;20055;-76
2021/09/17 14:27:01;;;;;;;2.53;1.40;;;;;;;;;;5031804;28;20049;-77
2021/09/17 14:29:28;;;;;;;1.75;1.15;;;;;;;;;;5031064;28;20041;-76
2021/09/17 14:31:54;;;;;;;2.00;1.10;;;;;;;;;;5031498;28;20049;-77
2021/09/17 14:34:21;;;;;;;1.20;1.10;;;;;;;;;;5029523;28;20496;-76
2021/09/17 14:36:49;;;;;;;2.58;1.20;;;;;;;;;;5030408;28;20498;-76
2021/09/17 14:39:15;;;;;;;1.95;1.20;;;;;;;;;;5031677;28;20060;-76
2021/09/17 14:41:43;;;;;;;2.58;1.17;;;;;;;;;;5031921;28;20045;-77
2021/09/17 14:44:10;;;;;;;2.03;1.20;;;;;;;;;;5032125;28;20051;-76
2021/09/17 14:46:36;;;;;;;3.28;1.70;;;;;;;;;;5032337;28;20475;-76
2021/09/17 14:49:03;;;;;;;1.58;1.20;;;;;;;;;;5031561;28;20053;-75
2021/09/17 14:51:29;;;;;;;2.55;1.50;;;;;;;;;;5030750;28;20042;-75
2021/09/17 14:53:57;;;;;;;2.50;1.10;;;;;;;;;;5031293;28;20045;-76
2021/09/17 14:56:24;;;;;;;1.90;1.23;;;;;;;;;;5027243;28;20703;-75
2021/09/17 14:58:51;;;;;;;2.28;1.48;;;;;;;;;;5030677;28;20482;-76
2021/09/17 15:01:18;;;;;;;3.05;1.30;;;;;;;;;;5030808;28;20539;-77
2021/09/17 15:03:44;;;;;;;1.90;1.25;;;;;;;;;;5030223;28;20053;-77
2021/09/17 15:06:11;;;;;;;2.20;1.30;;;;;;;;;;5030663;28;20251;-76
2021/09/17 15:08:37;;;;;;;4.85;1.20;;;;;;;;;;5031334;28;20041;-76
2021/09/17 15:11:05;;;;;;;3.10;1.90;;;;;;;;;;5030701;28;20045;-77
2021/09/17 15:13:33;;;;;;;3.58;1.40;;;;;;;;;;5030606;28;20046;-77
2021/09/17 15:15:59;;;;;;;2.45;1.33;;;;;;;;;;5030387;28;20102;-76
2021/09/17 15:18:26;;;;;;;3.95;1.88;;;;;;;;;;5029611;28;20049;-77
2021/09/17 15:20:52;;;;;;;2.83;1.70;;;;;;;;;;5029901;28;20061;-77
2021/09/17 15:23:19;;;;;;;2.22;1.40;;;;;;;;;;5031452;28;20045;-76
2021/09/17 15:25:45;;;;;;;3.20;1.75;;;;;;;;;;5031234;28;20045;-76
2021/09/17 15:28:13;;;;;;;2.38;1.48;;;;;;;;;;5030710;28;20049;-76
2021/09/17 15:30:41;;;;;;;2.97;1.58;;;;;;;;;;5031513;28;20136;-75